Enter the Airport ICAO Code

Search by Airport or City

Current Weather

SARE | Resistencia International Airport

Resistencia, Chaco, Argentina

Last Update 29 Minutes Ago

Light Thunderstorm with Rain

Temperature of 21 ēC

Light to Moderate Winds from South

Temperature

21 ēC

Dew Point Temperature

20 ēC

Relative Humidity

94.05 %

Wind Direction

South (200ē, Without Significant Variations)

Wind Velocity

17 km/h (09 kt)

Gusts

None

Visibility

Reduced to 7.0 Kilometers

Sea Level Pressure

1004 hPa (Hectopascals)

Layers of Clouds

30% to 60% of Sky Covered from 1067 mts (3500 ft) Above Ground Level.

5% to 30% of Sky Covered with Cumulonimbus from 1707 mts (5600 ft) Above Ground Level.

90% to 100% of Sky Covered from 3048 mts (10000 ft) Above Ground Level.

METAR SARE 022100Z 20009KT 7000 -TSRA SCT035 FEW056CB OVC100 21/20 Q1004

Weather Forecast

SARE | Resistencia International Airport

Resistencia, Chaco, Argentina

Forecast valid for the next 21 Hours

In the next 2 hours it is expected the begining of:

Mostly Cloudy Sky

Moderate Winds from South

Maximum Temperature

No Data

Minimum Temperature

18 ēC in 12 Hours

TAF SARE 021700Z 0218/0318 20020G40KT 5000 TSRA SCT010 OVC040 FEW050CB TX34/0218Z TN18/0309Z PROB40 TEMPO 0219/0221 1500 +TSRA OVC008 OVC030 SCT050CB BECMG 0221/0223 20010KT 9999 BKN030